sensor_id;sensor_type;location;lat;lon;timestamp;P1;durP1;ratioP1;P2;durP2;ratioP2
53775;SDS011;44276;49.534;6.378;2023-05-10T00:01:18;7.50;;;3.70;;
53775;SDS011;44276;49.534;6.378;2023-05-10T00:03:46;6.00;;;3.72;;
53775;SDS011;44276;49.534;6.378;2023-05-10T00:06:14;5.15;;;3.50;;
53775;SDS011;44276;49.534;6.378;2023-05-10T00:08:44;5.47;;;3.63;;
53775;SDS011;44276;49.534;6.378;2023-05-10T00:11:13;5.45;;;3.40;;
53775;SDS011;44276;49.534;6.378;2023-05-10T00:13:41;7.88;;;3.90;;
53775;SDS011;44276;49.534;6.378;2023-05-10T00:16:09;6.57;;;3.90;;
53775;SDS011;44276;49.534;6.378;2023-05-10T00:18:39;6.68;;;3.38;;
53775;SDS011;44276;49.534;6.378;2023-05-10T00:21:07;6.28;;;3.72;;
53775;SDS011;44276;49.534;6.378;2023-05-10T00:23:35;5.95;;;4.55;;
53775;SDS011;44276;49.534;6.378;2023-05-10T00:26:05;6.63;;;4.15;;
53775;SDS011;44276;49.534;6.378;2023-05-10T00:28:33;7.13;;;3.85;;
53775;SDS011;44276;49.534;6.378;2023-05-10T00:31:01;6.80;;;3.92;;
53775;SDS011;44276;49.534;6.378;2023-05-10T00:33:29;8.68;;;4.68;;
53775;SDS011;44276;49.534;6.378;2023-05-10T00:35:57;7.28;;;4.53;;
53775;SDS011;44276;49.534;6.378;2023-05-10T00:38:25;7.25;;;5.15;;
53775;SDS011;44276;49.534;6.378;2023-05-10T00:40:54;8.20;;;5.22;;
53775;SDS011;44276;49.534;6.378;2023-05-10T00:43:23;11.45;;;6.40;;
53775;SDS011;44276;49.534;6.378;2023-05-10T00:45:51;7.82;;;4.72;;
53775;SDS011;44276;49.534;6.378;2023-05-10T00:48:20;7.30;;;4.75;;
53775;SDS011;44276;49.534;6.378;2023-05-10T00:50:49;15.88;;;7.32;;
53775;SDS011;44276;49.534;6.378;2023-05-10T00:53:17;9.38;;;5.70;;
53775;SDS011;44276;49.534;6.378;2023-05-10T00:55:46;9.35;;;6.05;;
53775;SDS011;44276;49.534;6.378;2023-05-10T00:58:15;8.32;;;5.15;;
53775;SDS011;44276;49.534;6.378;2023-05-10T01:00:44;11.07;;;6.03;;
53775;SDS011;44276;49.534;6.378;2023-05-10T01:03:13;15.00;;;6.18;;
53775;SDS011;44276;49.534;6.378;2023-05-10T01:05:42;13.20;;;6.43;;
53775;SDS011;44276;49.534;6.378;2023-05-10T01:08:10;12.57;;;6.57;;
53775;SDS011;44276;49.534;6.378;2023-05-10T01:10:38;8.30;;;5.78;;
53775;SDS011;44276;49.534;6.378;2023-05-10T01:13:06;13.27;;;7.78;;
53775;SDS011;44276;49.534;6.378;2023-05-10T01:15:34;10.88;;;5.93;;
53775;SDS011;44276;49.534;6.378;2023-05-10T01:18:05;11.07;;;6.82;;
53775;SDS011;44276;49.534;6.378;2023-05-10T01:20:39;11.25;;;5.80;;
53775;SDS011;44276;49.534;6.378;2023-05-10T01:23:28;10.50;;;6.68;;
53775;SDS011;44276;49.534;6.378;2023-05-10T01:26:15;9.25;;;6.28;;
53775;SDS011;44276;49.534;6.378;2023-05-10T01:32:43;15.45;;;7.78;;
53775;SDS011;44276;49.534;6.378;2023-05-10T01:35:22;11.32;;;6.80;;
53775;SDS011;44276;49.534;6.378;2023-05-10T01:38:04;12.50;;;7.40;;
53775;SDS011;44276;49.534;6.378;2023-05-10T01:40:47;11.25;;;7.07;;
53775;SDS011;44276;49.534;6.378;2023-05-10T01:43:48;12.05;;;6.85;;
53775;SDS011;44276;49.534;6.378;2023-05-10T01:46:26;12.60;;;8.05;;
53775;SDS011;44276;49.534;6.378;2023-05-10T01:49:03;19.63;;;7.20;;
53775;SDS011;44276;49.534;6.378;2023-05-10T01:51:38;12.63;;;8.02;;
53775;SDS011;44276;49.534;6.378;2023-05-10T01:54:14;11.18;;;6.82;;
53775;SDS011;44276;49.534;6.378;2023-05-10T01:56:47;14.10;;;9.10;;
53775;SDS011;44276;49.534;6.378;2023-05-10T01:59:23;17.30;;;8.63;;
53775;SDS011;44276;49.534;6.378;2023-05-10T02:01:58;16.42;;;8.38;;
53775;SDS011;44276;49.534;6.378;2023-05-10T02:04:30;14.13;;;7.78;;
53775;SDS011;44276;49.534;6.378;2023-05-10T02:07:02;10.68;;;7.10;;
53775;SDS011;44276;49.534;6.378;2023-05-10T02:09:32;12.02;;;6.90;;
53775;SDS011;44276;49.534;6.378;2023-05-10T02:12:02;17.08;;;9.52;;
53775;SDS011;44276;49.534;6.378;2023-05-10T02:14:34;14.52;;;8.77;;
53775;SDS011;44276;49.534;6.378;2023-05-10T02:17:05;14.57;;;7.57;;
53775;SDS011;44276;49.534;6.378;2023-05-10T02:19:38;13.52;;;8.45;;
53775;SDS011;44276;49.534;6.378;2023-05-10T02:22:10;15.40;;;8.43;;
53775;SDS011;44276;49.534;6.378;2023-05-10T02:24:40;14.93;;;8.55;;
53775;SDS011;44276;49.534;6.378;2023-05-10T02:27:10;16.88;;;9.23;;
53775;SDS011;44276;49.534;6.378;2023-05-10T02:29:41;13.63;;;8.32;;
53775;SDS011;44276;49.534;6.378;2023-05-10T02:32:10;18.52;;;10.65;;
53775;SDS011;44276;49.534;6.378;2023-05-10T02:34:41;12.93;;;7.50;;
53775;SDS011;44276;49.534;6.378;2023-05-10T02:37:11;15.45;;;8.18;;
53775;SDS011;44276;49.534;6.378;2023-05-10T02:39:41;22.45;;;9.25;;
53775;SDS011;44276;49.534;6.378;2023-05-10T02:42:13;11.95;;;6.90;;
53775;SDS011;44276;49.534;6.378;2023-05-10T02:44:46;10.63;;;7.10;;
53775;SDS011;44276;49.534;6.378;2023-05-10T02:47:17;7.85;;;5.25;;
53775;SDS011;44276;49.534;6.378;2023-05-10T02:49:48;10.43;;;7.20;;
53775;SDS011;44276;49.534;6.378;2023-05-10T02:52:18;10.27;;;6.50;;
53775;SDS011;44276;49.534;6.378;2023-05-10T02:54:54;9.30;;;6.50;;
53775;SDS011;44276;49.534;6.378;2023-05-10T02:57:28;13.48;;;6.63;;
53775;SDS011;44276;49.534;6.378;2023-05-10T03:00:01;10.07;;;5.88;;
53775;SDS011;44276;49.534;6.378;2023-05-10T03:02:31;7.53;;;4.88;;
53775;SDS011;44276;49.534;6.378;2023-05-10T03:05:01;9.25;;;5.63;;
53775;SDS011;44276;49.534;6.378;2023-05-10T03:07:29;10.77;;;6.18;;
53775;SDS011;44276;49.534;6.378;2023-05-10T03:09:57;13.00;;;7.03;;
53775;SDS011;44276;49.534;6.378;2023-05-10T03:12:27;10.93;;;5.38;;
53775;SDS011;44276;49.534;6.378;2023-05-10T03:15:17;11.75;;;6.22;;
53775;SDS011;44276;49.534;6.378;2023-05-10T03:17:57;12.32;;;8.05;;
53775;SDS011;44276;49.534;6.378;2023-05-10T03:20:35;21.15;;;10.15;;
53775;SDS011;44276;49.534;6.378;2023-05-10T03:23:11;14.07;;;7.90;;
53775;SDS011;44276;49.534;6.378;2023-05-10T03:25:46;12.00;;;7.22;;
53775;SDS011;44276;49.534;6.378;2023-05-10T03:28:17;16.55;;;8.10;;
53775;SDS011;44276;49.534;6.378;2023-05-10T03:30:47;15.68;;;9.25;;
53775;SDS011;44276;49.534;6.378;2023-05-10T03:33:17;13.18;;;7.13;;
53775;SDS011;44276;49.534;6.378;2023-05-10T03:35:46;7.75;;;4.22;;
53775;SDS011;44276;49.534;6.378;2023-05-10T03:38:14;5.55;;;3.50;;
53775;SDS011;44276;49.534;6.378;2023-05-10T03:40:42;9.02;;;4.50;;
53775;SDS011;44276;49.534;6.378;2023-05-10T03:43:10;7.13;;;4.38;;
53775;SDS011;44276;49.534;6.378;2023-05-10T03:45:38;9.15;;;4.88;;
53775;SDS011;44276;49.534;6.378;2023-05-10T03:48:06;5.97;;;3.22;;
53775;SDS011;44276;49.534;6.378;2023-05-10T03:50:34;8.60;;;4.30;;
53775;SDS011;44276;49.534;6.378;2023-05-10T03:53:04;7.53;;;4.28;;
53775;SDS011;44276;49.534;6.378;2023-05-10T03:55:32;8.73;;;4.80;;
53775;SDS011;44276;49.534;6.378;2023-05-10T03:58:02;5.80;;;4.47;;
53775;SDS011;44276;49.534;6.378;2023-05-10T04:00:30;4.88;;;3.47;;
53775;SDS011;44276;49.534;6.378;2023-05-10T04:02:58;9.90;;;4.72;;
53775;SDS011;44276;49.534;6.378;2023-05-10T04:05:27;5.22;;;3.65;;
53775;SDS011;44276;49.534;6.378;2023-05-10T04:07:55;5.93;;;3.90;;
53775;SDS011;44276;49.534;6.378;2023-05-10T04:10:24;5.78;;;3.95;;
53775;SDS011;44276;49.534;6.378;2023-05-10T04:12:52;7.07;;;4.15;;
53775;SDS011;44276;49.534;6.378;2023-05-10T04:15:20;8.93;;;5.30;;
53775;SDS011;44276;49.534;6.378;2023-05-10T04:17:49;6.15;;;3.70;;
53775;SDS011;44276;49.534;6.378;2023-05-10T04:20:17;4.75;;;3.33;;
53775;SDS011;44276;49.534;6.378;2023-05-10T04:22:46;7.78;;;3.35;;
53775;SDS011;44276;49.534;6.378;2023-05-10T04:25:14;9.57;;;3.97;;
53775;SDS011;44276;49.534;6.378;2023-05-10T04:27:43;5.50;;;3.30;;
53775;SDS011;44276;49.534;6.378;2023-05-10T04:30:11;6.53;;;2.75;;
53775;SDS011;44276;49.534;6.378;2023-05-10T04:32:40;7.32;;;3.70;;
53775;SDS011;44276;49.534;6.378;2023-05-10T04:35:08;6.85;;;4.47;;
53775;SDS011;44276;49.534;6.378;2023-05-10T04:37:37;4.03;;;3.05;;
53775;SDS011;44276;49.534;6.378;2023-05-10T04:40:06;3.67;;;2.72;;
53775;SDS011;44276;49.534;6.378;2023-05-10T04:42:35;7.28;;;2.95;;
53775;SDS011;44276;49.534;6.378;2023-05-10T04:45:06;8.35;;;3.22;;
53775;SDS011;44276;49.534;6.378;2023-05-10T04:47:35;6.07;;;3.05;;
53775;SDS011;44276;49.534;6.378;2023-05-10T04:50:04;11.43;;;3.60;;
53775;SDS011;44276;49.534;6.378;2023-05-10T04:52:33;5.15;;;2.60;;
53775;SDS011;44276;49.534;6.378;2023-05-10T04:55:02;3.42;;;1.65;;
53775;SDS011;44276;49.534;6.378;2023-05-10T04:57:33;3.08;;;1.75;;
53775;SDS011;44276;49.534;6.378;2023-05-10T05:00:01;14.75;;;1.85;;
53775;SDS011;44276;49.534;6.378;2023-05-10T05:02:32;3.88;;;1.95;;
53775;SDS011;44276;49.534;6.378;2023-05-10T05:05:00;3.35;;;1.33;;
53775;SDS011;44276;49.534;6.378;2023-05-10T05:07:28;3.13;;;1.10;;
53775;SDS011;44276;49.534;6.378;2023-05-10T05:09:57;2.00;;;1.67;;
53775;SDS011;44276;49.534;6.378;2023-05-10T05:12:25;2.33;;;1.67;;
53775;SDS011;44276;49.534;6.378;2023-05-10T05:14:53;1.40;;;1.25;;
53775;SDS011;44276;49.534;6.378;2023-05-10T05:17:21;3.38;;;1.42;;
53775;SDS011;44276;49.534;6.378;2023-05-10T05:19:50;2.05;;;1.25;;
53775;SDS011;44276;49.534;6.378;2023-05-10T05:22:18;2.35;;;1.42;;
53775;SDS011;44276;49.534;6.378;2023-05-10T05:24:53;2.28;;;1.33;;
53775;SDS011;44276;49.534;6.378;2023-05-10T05:27:21;4.35;;;1.40;;
53775;SDS011;44276;49.534;6.378;2023-05-10T05:29:50;4.65;;;1.30;;
53775;SDS011;44276;49.534;6.378;2023-05-10T05:32:20;3.08;;;1.20;;
53775;SDS011;44276;49.534;6.378;2023-05-10T05:34:50;1.63;;;1.00;;
53775;SDS011;44276;49.534;6.378;2023-05-10T05:37:19;1.73;;;1.27;;
53775;SDS011;44276;49.534;6.378;2023-05-10T05:39:48;1.27;;;1.00;;
53775;SDS011;44276;49.534;6.378;2023-05-10T05:42:17;4.95;;;1.08;;
53775;SDS011;44276;49.534;6.378;2023-05-10T05:44:45;1.92;;;1.20;;
53775;SDS011;44276;49.534;6.378;2023-05-10T05:47:13;2.58;;;0.75;;
53775;SDS011;44276;49.534;6.378;2023-05-10T05:49:41;2.30;;;1.25;;
53775;SDS011;44276;49.534;6.378;2023-05-10T05:52:13;1.08;;;0.68;;
53775;SDS011;44276;49.534;6.378;2023-05-10T05:54:41;0.70;;;0.70;;
53775;SDS011;44276;49.534;6.378;2023-05-10T05:57:09;1.48;;;0.82;;
53775;SDS011;44276;49.534;6.378;2023-05-10T05:59:37;1.17;;;0.60;;
53775;SDS011;44276;49.534;6.378;2023-05-10T06:02:08;1.67;;;0.85;;
53775;SDS011;44276;49.534;6.378;2023-05-10T06:04:36;0.38;;;0.30;;
53775;SDS011;44276;49.534;6.378;2023-05-10T06:07:04;2.88;;;0.77;;
53775;SDS011;44276;49.534;6.378;2023-05-10T06:09:34;0.20;;;0.20;;
53775;SDS011;44276;49.534;6.378;2023-05-10T06:12:02;0.30;;;0.30;;
53775;SDS011;44276;49.534;6.378;2023-05-10T06:14:30;1.95;;;0.55;;
53775;SDS011;44276;49.534;6.378;2023-05-10T06:16:58;1.45;;;0.30;;
53775;SDS011;44276;49.534;6.378;2023-05-10T06:19:27;0.40;;;0.40;;
53775;SDS011;44276;49.534;6.378;2023-05-10T06:21:55;1.38;;;0.50;;
53775;SDS011;44276;49.534;6.378;2023-05-10T06:24:23;1.45;;;0.43;;
53775;SDS011;44276;49.534;6.378;2023-05-10T06:26:53;2.33;;;0.40;;
53775;SDS011;44276;49.534;6.378;2023-05-10T06:29:21;0.22;;;0.22;;
53775;SDS011;44276;49.534;6.378;2023-05-10T06:31:49;2.83;;;0.68;;
53775;SDS011;44276;49.534;6.378;2023-05-10T06:34:17;0.75;;;0.35;;
53775;SDS011;44276;49.534;6.378;2023-05-10T06:36:45;0.30;;;0.22;;
53775;SDS011;44276;49.534;6.378;2023-05-10T06:39:13;0.40;;;0.35;;
53775;SDS011;44276;49.534;6.378;2023-05-10T06:41:42;0.85;;;0.50;;
53775;SDS011;44276;49.534;6.378;2023-05-10T06:44:11;1.95;;;0.50;;
53775;SDS011;44276;49.534;6.378;2023-05-10T06:46:40;1.13;;;0.80;;
53775;SDS011;44276;49.534;6.378;2023-05-10T06:49:08;0.60;;;0.38;;
53775;SDS011;44276;49.534;6.378;2023-05-10T06:51:36;1.85;;;0.35;;
53775;SDS011;44276;49.534;6.378;2023-05-10T06:54:04;1.02;;;0.63;;
53775;SDS011;44276;49.534;6.378;2023-05-10T06:56:39;0.20;;;0.15;;
53775;SDS011;44276;49.534;6.378;2023-05-10T06:59:09;0.88;;;0.20;;
53775;SDS011;44276;49.534;6.378;2023-05-10T07:01:40;2.20;;;0.30;;
53775;SDS011;44276;49.534;6.378;2023-05-10T07:04:08;2.45;;;0.45;;
53775;SDS011;44276;49.534;6.378;2023-05-10T07:06:36;4.20;;;0.50;;
53775;SDS011;44276;49.534;6.378;2023-05-10T07:09:05;3.60;;;0.28;;
53775;SDS011;44276;49.534;6.378;2023-05-10T07:11:34;0.35;;;0.20;;
53775;SDS011;44276;49.534;6.378;2023-05-10T07:14:03;1.42;;;0.30;;
53775;SDS011;44276;49.534;6.378;2023-05-10T07:16:32;2.58;;;0.43;;
53775;SDS011;44276;49.534;6.378;2023-05-10T07:19:02;1.85;;;0.85;;
53775;SDS011;44276;49.534;6.378;2023-05-10T07:21:31;1.88;;;0.50;;
53775;SDS011;44276;49.534;6.378;2023-05-10T07:24:01;1.05;;;0.43;;
53775;SDS011;44276;49.534;6.378;2023-05-10T07:26:29;3.50;;;0.35;;
53775;SDS011;44276;49.534;6.378;2023-05-10T07:28:57;0.40;;;0.30;;
53775;SDS011;44276;49.534;6.378;2023-05-10T07:31:26;2.28;;;0.68;;
53775;SDS011;44276;49.534;6.378;2023-05-10T07:33:54;1.48;;;0.38;;
53775;SDS011;44276;49.534;6.378;2023-05-10T07:36:23;4.00;;;1.05;;
53775;SDS011;44276;49.534;6.378;2023-05-10T07:38:51;0.85;;;0.50;;
53775;SDS011;44276;49.534;6.378;2023-05-10T07:41:20;2.33;;;0.57;;
53775;SDS011;44276;49.534;6.378;2023-05-10T07:43:48;1.55;;;0.50;;
53775;SDS011;44276;49.534;6.378;2023-05-10T07:46:16;3.70;;;0.60;;
53775;SDS011;44276;49.534;6.378;2023-05-10T07:48:45;0.98;;;0.40;;
53775;SDS011;44276;49.534;6.378;2023-05-10T07:51:13;1.48;;;0.88;;
53775;SDS011;44276;49.534;6.378;2023-05-10T07:53:43;4.05;;;1.20;;
53775;SDS011;44276;49.534;6.378;2023-05-10T07:56:20;1.73;;;0.93;;
53775;SDS011;44276;49.534;6.378;2023-05-10T07:58:51;6.60;;;1.60;;
53775;SDS011;44276;49.534;6.378;2023-05-10T08:01:19;3.03;;;0.85;;
53775;SDS011;44276;49.534;6.378;2023-05-10T08:03:47;5.85;;;1.50;;
53775;SDS011;44276;49.534;6.378;2023-05-10T08:06:17;2.40;;;1.10;;
53775;SDS011;44276;49.534;6.378;2023-05-10T08:08:48;4.93;;;1.52;;
53775;SDS011;44276;49.534;6.378;2023-05-10T08:11:17;6.50;;;1.90;;
53775;SDS011;44276;49.534;6.378;2023-05-10T08:13:47;2.92;;;1.23;;
53775;SDS011;44276;49.534;6.378;2023-05-10T08:16:17;2.67;;;1.45;;
53775;SDS011;44276;49.534;6.378;2023-05-10T08:18:46;1.80;;;1.13;;
53775;SDS011;44276;49.534;6.378;2023-05-10T08:21:16;5.22;;;1.60;;
53775;SDS011;44276;49.534;6.378;2023-05-10T08:23:44;3.50;;;1.27;;
53775;SDS011;44276;49.534;6.378;2023-05-10T08:26:14;3.25;;;1.25;;
53775;SDS011;44276;49.534;6.378;2023-05-10T08:28:42;3.10;;;1.35;;
53775;SDS011;44276;49.534;6.378;2023-05-10T08:31:10;2.63;;;1.38;;
53775;SDS011;44276;49.534;6.378;2023-05-10T08:33:39;4.43;;;1.65;;
53775;SDS011;44276;49.534;6.378;2023-05-10T08:36:27;9.85;;;1.35;;
53775;SDS011;44276;49.534;6.378;2023-05-10T08:38:55;6.70;;;1.15;;
53775;SDS011;44276;49.534;6.378;2023-05-10T08:41:24;2.30;;;1.10;;
53775;SDS011;44276;49.534;6.378;2023-05-10T08:43:53;3.17;;;1.40;;
53775;SDS011;44276;49.534;6.378;2023-05-10T08:46:22;3.92;;;1.00;;
53775;SDS011;44276;49.534;6.378;2023-05-10T08:48:51;1.77;;;1.20;;
53775;SDS011;44276;49.534;6.378;2023-05-10T08:51:22;5.43;;;1.00;;
53775;SDS011;44276;49.534;6.378;2023-05-10T08:53:52;4.00;;;1.13;;
53775;SDS011;44276;49.534;6.378;2023-05-10T08:56:21;1.60;;;0.88;;
53775;SDS011;44276;49.534;6.378;2023-05-10T08:58:52;4.88;;;1.95;;
53775;SDS011;44276;49.534;6.378;2023-05-10T09:01:21;5.72;;;1.13;;
53775;SDS011;44276;49.534;6.378;2023-05-10T09:03:50;1.40;;;0.68;;
53775;SDS011;44276;49.534;6.378;2023-05-10T09:06:18;2.40;;;0.88;;
53775;SDS011;44276;49.534;6.378;2023-05-10T09:08:47;3.60;;;0.95;;
53775;SDS011;44276;49.534;6.378;2023-05-10T09:11:15;4.63;;;1.50;;
53775;SDS011;44276;49.534;6.378;2023-05-10T09:13:44;3.08;;;1.35;;
53775;SDS011;44276;49.534;6.378;2023-05-10T09:16:16;2.63;;;1.58;;
53775;SDS011;44276;49.534;6.378;2023-05-10T09:18:47;1.90;;;1.00;;
53775;SDS011;44276;49.534;6.378;2023-05-10T09:21:16;3.83;;;1.92;;
53775;SDS011;44276;49.534;6.378;2023-05-10T09:23:47;2.47;;;0.85;;
53775;SDS011;44276;49.534;6.378;2023-05-10T09:26:16;3.40;;;0.63;;
53775;SDS011;44276;49.534;6.378;2023-05-10T09:28:52;3.40;;;1.88;;
53775;SDS011;44276;49.534;6.378;2023-05-10T09:31:24;3.13;;;1.10;;
53775;SDS011;44276;49.534;6.378;2023-05-10T09:34:10;3.72;;;0.85;;
53775;SDS011;44276;49.534;6.378;2023-05-10T09:36:52;4.38;;;1.33;;
53775;SDS011;44276;49.534;6.378;2023-05-10T09:39:29;2.40;;;0.85;;
53775;SDS011;44276;49.534;6.378;2023-05-10T09:41:59;4.30;;;0.90;;
53775;SDS011;44276;49.534;6.378;2023-05-10T09:44:31;3.20;;;0.73;;
53775;SDS011;44276;49.534;6.378;2023-05-10T09:47:01;5.07;;;0.80;;
53775;SDS011;44276;49.534;6.378;2023-05-10T09:49:30;6.60;;;1.60;;
53775;SDS011;44276;49.534;6.378;2023-05-10T09:51:59;4.10;;;1.00;;
53775;SDS011;44276;49.534;6.378;2023-05-10T09:54:29;3.15;;;0.68;;
53775;SDS011;44276;49.534;6.378;2023-05-10T09:56:58;4.20;;;0.70;;
53775;SDS011;44276;49.534;6.378;2023-05-10T09:59:27;2.83;;;0.90;;
53775;SDS011;44276;49.534;6.378;2023-05-10T10:01:57;5.57;;;1.20;;
53775;SDS011;44276;49.534;6.378;2023-05-10T10:04:28;10.52;;;0.95;;
53775;SDS011;44276;49.534;6.378;2023-05-10T10:06:58;1.67;;;0.80;;
53775;SDS011;44276;49.534;6.378;2023-05-10T10:09:28;10.50;;;1.08;;
53775;SDS011;44276;49.534;6.378;2023-05-10T10:11:57;4.60;;;1.48;;
53775;SDS011;44276;49.534;6.378;2023-05-10T10:14:26;3.38;;;0.80;;
53775;SDS011;44276;49.534;6.378;2023-05-10T10:16:55;1.63;;;0.93;;
53775;SDS011;44276;49.534;6.378;2023-05-10T10:19:35;2.75;;;0.50;;
53775;SDS011;44276;49.534;6.378;2023-05-10T10:22:04;3.97;;;1.70;;
53775;SDS011;44276;49.534;6.378;2023-05-10T10:24:33;6.30;;;1.00;;
53775;SDS011;44276;49.534;6.378;2023-05-10T10:27:04;2.60;;;0.40;;
53775;SDS011;44276;49.534;6.378;2023-05-10T10:29:59;6.07;;;0.75;;
53775;SDS011;44276;49.534;6.378;2023-05-10T10:32:40;2.42;;;0.70;;
53775;SDS011;44276;49.534;6.378;2023-05-10T10:35:54;4.68;;;1.08;;
53775;SDS011;44276;49.534;6.378;2023-05-10T10:38:25;6.45;;;0.77;;
53775;SDS011;44276;49.534;6.378;2023-05-10T10:41:09;2.15;;;0.82;;
53775;SDS011;44276;49.534;6.378;2023-05-10T10:47:06;3.45;;;0.68;;
53775;SDS011;44276;49.534;6.378;2023-05-10T10:49:51;2.78;;;0.63;;
53775;SDS011;44276;49.534;6.378;2023-05-10T10:52:33;2.95;;;0.70;;
53775;SDS011;44276;49.534;6.378;2023-05-10T10:55:04;5.00;;;0.75;;
53775;SDS011;44276;49.534;6.378;2023-05-10T10:57:42;2.58;;;0.52;;
53775;SDS011;44276;49.534;6.378;2023-05-10T11:00:23;2.65;;;0.47;;
53775;SDS011;44276;49.534;6.378;2023-05-10T11:02:58;3.75;;;0.40;;
53775;SDS011;44276;49.534;6.378;2023-05-10T11:08:11;4.68;;;0.82;;
53775;SDS011;44276;49.534;6.378;2023-05-10T11:10:49;3.08;;;0.47;;
53775;SDS011;44276;49.534;6.378;2023-05-10T11:13:39;1.13;;;0.45;;
53775;SDS011;44276;49.534;6.378;2023-05-10T11:16:10;6.07;;;0.50;;
53775;SDS011;44276;49.534;6.378;2023-05-10T11:18:53;1.20;;;0.40;;
53775;SDS011;44276;49.534;6.378;2023-05-10T11:21:25;3.35;;;0.50;;
53775;SDS011;44276;49.534;6.378;2023-05-10T11:23:55;0.90;;;0.60;;
53775;SDS011;44276;49.534;6.378;2023-05-10T11:26:25;4.28;;;0.45;;
53775;SDS011;44276;49.534;6.378;2023-05-10T11:28:58;2.85;;;0.30;;
53775;SDS011;44276;49.534;6.378;2023-05-10T11:31:28;1.02;;;0.52;;
53775;SDS011;44276;49.534;6.378;2023-05-10T11:33:57;0.95;;;0.20;;
53775;SDS011;44276;49.534;6.378;2023-05-10T11:36:28;3.05;;;0.90;;
53775;SDS011;44276;49.534;6.378;2023-05-10T11:39:04;0.88;;;0.55;;
53775;SDS011;44276;49.534;6.378;2023-05-10T11:41:33;1.33;;;0.45;;
53775;SDS011;44276;49.534;6.378;2023-05-10T11:44:01;2.80;;;0.70;;
53775;SDS011;44276;49.534;6.378;2023-05-10T11:46:29;1.40;;;0.30;;
53775;SDS011;44276;49.534;6.378;2023-05-10T11:48:58;1.13;;;0.40;;
53775;SDS011;44276;49.534;6.378;2023-05-10T11:51:32;3.13;;;0.55;;
53775;SDS011;44276;49.534;6.378;2023-05-10T11:54:06;2.10;;;0.25;;
53775;SDS011;44276;49.534;6.378;2023-05-10T11:56:36;1.52;;;0.38;;
53775;SDS011;44276;49.534;6.378;2023-05-10T11:59:04;4.50;;;0.28;;
53775;SDS011;44276;49.534;6.378;2023-05-10T12:01:34;2.45;;;0.28;;
53775;SDS011;44276;49.534;6.378;2023-05-10T12:04:03;0.90;;;0.35;;
53775;SDS011;44276;49.534;6.378;2023-05-10T12:06:32;1.85;;;0.43;;
53775;SDS011;44276;49.534;6.378;2023-05-10T12:09:08;1.00;;;0.20;;
53775;SDS011;44276;49.534;6.378;2023-05-10T12:11:37;2.33;;;0.30;;
53775;SDS011;44276;49.534;6.378;2023-05-10T12:14:09;1.58;;;0.50;;
53775;SDS011;44276;49.534;6.378;2023-05-10T12:16:37;3.17;;;0.70;;
53775;SDS011;44276;49.534;6.378;2023-05-10T12:19:05;0.55;;;0.20;;
53775;SDS011;44276;49.534;6.378;2023-05-10T12:21:34;6.85;;;1.30;;
53775;SDS011;44276;49.534;6.378;2023-05-10T12:24:02;0.98;;;0.20;;
53775;SDS011;44276;49.534;6.378;2023-05-10T12:26:34;0.55;;;0.32;;
53775;SDS011;44276;49.534;6.378;2023-05-10T12:29:13;2.83;;;0.77;;
53775;SDS011;44276;49.534;6.378;2023-05-10T12:31:52;4.35;;;0.90;;
53775;SDS011;44276;49.534;6.378;2023-05-10T12:34:23;1.90;;;0.28;;
53775;SDS011;44276;49.534;6.378;2023-05-10T12:36:52;1.63;;;0.20;;
53775;SDS011;44276;49.534;6.378;2023-05-10T12:39:21;0.50;;;0.10;;
53775;SDS011;44276;49.534;6.378;2023-05-10T12:41:51;0.57;;;0.10;;
53775;SDS011;44276;49.534;6.378;2023-05-10T12:44:20;2.45;;;0.10;;
53775;SDS011;44276;49.534;6.378;2023-05-10T12:46:48;2.13;;;0.20;;
53775;SDS011;44276;49.534;6.378;2023-05-10T12:49:16;2.00;;;0.10;;
53775;SDS011;44276;49.534;6.378;2023-05-10T12:51:45;0.47;;;0.15;;
53775;SDS011;44276;49.534;6.378;2023-05-10T12:54:13;1.02;;;0.45;;
53775;SDS011;44276;49.534;6.378;2023-05-10T12:56:41;2.28;;;0.13;;
53775;SDS011;44276;49.534;6.378;2023-05-10T12:59:11;0.75;;;0.05;;
53775;SDS011;44276;49.534;6.378;2023-05-10T13:01:39;0.45;;;0.10;;
53775;SDS011;44276;49.534;6.378;2023-05-10T13:04:07;1.50;;;0.38;;
53775;SDS011;44276;49.534;6.378;2023-05-10T13:06:36;0.43;;;0.20;;
53775;SDS011;44276;49.534;6.378;2023-05-10T13:09:04;0.55;;;0.10;;
53775;SDS011;44276;49.534;6.378;2023-05-10T13:11:32;0.75;;;0.20;;
53775;SDS011;44276;49.534;6.378;2023-05-10T13:14:00;1.45;;;0.30;;
53775;SDS011;44276;49.534;6.378;2023-05-10T13:16:30;0.55;;;0.05;;
53775;SDS011;44276;49.534;6.378;2023-05-10T13:18:58;0.60;;;0.20;;
53775;SDS011;44276;49.534;6.378;2023-05-10T13:21:26;1.48;;;0.20;;
53775;SDS011;44276;49.534;6.378;2023-05-10T13:23:55;1.38;;;0.20;;
53775;SDS011;44276;49.534;6.378;2023-05-10T13:26:23;1.75;;;0.17;;
53775;SDS011;44276;49.534;6.378;2023-05-10T13:28:51;0.30;;;0.10;;
53775;SDS011;44276;49.534;6.378;2023-05-10T13:31:21;0.63;;;0.10;;
53775;SDS011;44276;49.534;6.378;2023-05-10T13:33:51;3.33;;;0.22;;
53775;SDS011;44276;49.534;6.378;2023-05-10T13:36:19;0.57;;;0.47;;
53775;SDS011;44276;49.534;6.378;2023-05-10T13:38:47;2.38;;;0.17;;
53775;SDS011;44276;49.534;6.378;2023-05-10T13:41:15;3.63;;;0.40;;
53775;SDS011;44276;49.534;6.378;2023-05-10T13:43:43;3.03;;;0.68;;
53775;SDS011;44276;49.534;6.378;2023-05-10T13:46:11;3.25;;;1.05;;
53775;SDS011;44276;49.534;6.378;2023-05-10T13:48:40;2.05;;;0.30;;
53775;SDS011;44276;49.534;6.378;2023-05-10T13:51:09;2.35;;;0.73;;
53775;SDS011;44276;49.534;6.378;2023-05-10T13:53:37;1.40;;;0.10;;
53775;SDS011;44276;49.534;6.378;2023-05-10T13:56:05;3.58;;;0.45;;
53775;SDS011;44276;49.534;6.378;2023-05-10T13:58:33;5.53;;;0.35;;
53775;SDS011;44276;49.534;6.378;2023-05-10T14:01:02;2.83;;;0.30;;
53775;SDS011;44276;49.534;6.378;2023-05-10T14:03:31;3.72;;;0.20;;
53775;SDS011;44276;49.534;6.378;2023-05-10T14:05:59;0.52;;;0.30;;
53775;SDS011;44276;49.534;6.378;2023-05-10T14:08:28;0.90;;;0.28;;
53775;SDS011;44276;49.534;6.378;2023-05-10T14:10:56;2.58;;;0.30;;
53775;SDS011;44276;49.534;6.378;2023-05-10T14:13:25;1.52;;;0.43;;
53775;SDS011;44276;49.534;6.378;2023-05-10T14:15:54;3.92;;;0.47;;
53775;SDS011;44276;49.534;6.378;2023-05-10T14:18:22;1.73;;;0.60;;
53775;SDS011;44276;49.534;6.378;2023-05-10T14:20:50;2.25;;;0.30;;
53775;SDS011;44276;49.534;6.378;2023-05-10T14:23:18;5.78;;;0.73;;
53775;SDS011;44276;49.534;6.378;2023-05-10T14:25:51;1.70;;;0.30;;
53775;SDS011;44276;49.534;6.378;2023-05-10T14:28:20;3.67;;;0.50;;
53775;SDS011;44276;49.534;6.378;2023-05-10T14:30:49;1.15;;;0.40;;
53775;SDS011;44276;49.534;6.378;2023-05-10T14:33:17;0.52;;;0.30;;
53775;SDS011;44276;49.534;6.378;2023-05-10T14:35:45;0.98;;;0.80;;
53775;SDS011;44276;49.534;6.378;2023-05-10T14:38:14;2.65;;;0.30;;
53775;SDS011;44276;49.534;6.378;2023-05-10T14:40:42;1.58;;;0.40;;
53775;SDS011;44276;49.534;6.378;2023-05-10T14:43:11;1.58;;;0.38;;
53775;SDS011;44276;49.534;6.378;2023-05-10T14:45:40;0.20;;;0.20;;
53775;SDS011;44276;49.534;6.378;2023-05-10T14:48:08;3.38;;;0.30;;
53775;SDS011;44276;49.534;6.378;2023-05-10T14:50:41;2.13;;;0.28;;
53775;SDS011;44276;49.534;6.378;2023-05-10T14:53:09;2.88;;;0.60;;
53775;SDS011;44276;49.534;6.378;2023-05-10T14:55:37;1.42;;;0.98;;
53775;SDS011;44276;49.534;6.378;2023-05-10T14:58:05;1.38;;;0.43;;
53775;SDS011;44276;49.534;6.378;2023-05-10T15:00:34;2.63;;;0.20;;
53775;SDS011;44276;49.534;6.378;2023-05-10T15:03:03;0.60;;;0.40;;
53775;SDS011;44276;49.534;6.378;2023-05-10T15:05:32;0.65;;;0.63;;
53775;SDS011;44276;49.534;6.378;2023-05-10T15:08:00;2.92;;;0.30;;
53775;SDS011;44276;49.534;6.378;2023-05-10T15:10:28;0.95;;;0.35;;
53775;SDS011;44276;49.534;6.378;2023-05-10T15:12:59;1.85;;;0.47;;
53775;SDS011;44276;49.534;6.378;2023-05-10T15:15:27;1.23;;;0.30;;